Flugplatz Schleswig-Kropp (EDXC)

Hier findest Du alle Informationen zum Flugplatz Schleswig-Kropp (EDXC).

Informationen für Piloten zum Flugplatz Schleswig-Kropp

Hier findest Du alle relevanten Informationen, die Du als Pilot benötigst, um Schleswig-Kropp anzufliegen.

Flugplatz: Schleswig-Kropp ICAO-Code: EDXC
Frequenz Turm: 118,675 Mhz GAFOR Gebiet: 4
Frequenz Ground: 118,675 Mhz Mogas: ja
Platzrunde: S/N 600 ft Landegebühr: -
Platzhöhe: - Sunrise: 07:26 Uhr UTC
Pisten: 09/27 - 880 m x 30 m, GRAS Sunset: 15:39 Uhr UTC

Mitglieder, die in Schleswig-Kropp fliegen

Flugwetter am Flugplatz Schleswig-Kropp

Die METAR Information stammen aus EDHK (39.48 km entfernt).

METAR Code:
2021/12/18 13:20
EDHK 181320Z 33011KT 290V350 9999 BKN014 08/06 Q1032

Flugschulen am Flugplatz Schleswig-Kropp

Am Flugplatz Schleswig-Kropp gibt es eine Flugschule.

Benachbarte Flugplätze und Flugschulen

Es gibt 11 weitere Flugplätze in einem Umkreis von 50 km um den Flugplatz Schleswig-Kropp.

Jetzt anmelden

Passwort vergessen

Umfrage Archiv

Welche Navigations-App nutzt Ihr im Cockpit

SkyDemon
51 %
VFRnav
19.3 %
Ich nutze eine andere App
17.7 %
EasyVFR
5.2 %
Ich nutze gar keine App
5.2 %
ForeFlight
1.6 %
Stimmen: 249 | Diskussion (45)
Anzeige: Roland Aircraft
Statistik Alle Mitglieder

Aktuell sind 16 Besucher online.

Anzeige: Pocket FMS